sensor_id;sensor_type;location;lat;lon;timestamp;pressure;altitude;pressure_sealevel;temperature;humidity
65019;BME280;66069;51.164;-114.452;2024-03-08T00:00:09;87930.31;;;15.75;45.85
65019;BME280;66069;51.164;-114.452;2024-03-08T00:02:38;87938.59;;;15.77;45.97
65019;BME280;66069;51.164;-114.452;2024-03-08T00:05:06;87936.38;;;15.72;45.94
65019;BME280;66069;51.164;-114.452;2024-03-08T00:07:37;87939.72;;;15.76;46.09
65019;BME280;66069;51.164;-114.452;2024-03-08T00:10:08;87931.44;;;15.74;45.92
65019;BME280;66069;51.164;-114.452;2024-03-08T00:12:42;87939.72;;;15.76;46.17
65019;BME280;66069;51.164;-114.452;2024-03-08T00:15:13;87940.16;;;15.71;45.89
65019;BME280;66069;51.164;-114.452;2024-03-08T00:17:40;87945.47;;;15.68;45.84
65019;BME280;66069;51.164;-114.452;2024-03-08T00:20:07;87957.53;;;15.69;45.96
65019;BME280;66069;51.164;-114.452;2024-03-08T00:22:37;87945.47;;;15.64;45.87
65019;BME280;66069;51.164;-114.452;2024-03-08T00:25:05;87958.69;;;15.64;46.03
65019;BME280;66069;51.164;-114.452;2024-03-08T00:27:31;87937.63;;;15.50;46.05
65019;BME280;66069;51.164;-114.452;2024-03-08T00:29:58;87962.09;;;15.57;45.95
65019;BME280;66069;51.164;-114.452;2024-03-08T00:32:24;87950.81;;;15.53;46.09
65019;BME280;66069;51.164;-114.452;2024-03-08T00:34:51;87959.09;;;15.55;46.81
65019;BME280;66069;51.164;-114.452;2024-03-08T00:37:20;87963.25;;;15.60;47.00
65019;BME280;66069;51.164;-114.452;2024-03-08T00:39:53;87960.97;;;15.58;46.94
65019;BME280;66069;51.164;-114.452;2024-03-08T00:42:20;87965.88;;;15.64;47.10
65019;BME280;66069;51.164;-114.452;2024-03-08T00:44:47;87970.00;;;15.65;46.88
65019;BME280;66069;51.164;-114.452;2024-03-08T00:47:17;87972.66;;;15.65;46.92
65019;BME280;66069;51.164;-114.452;2024-03-08T00:49:43;87974.19;;;15.62;47.09
65019;BME280;66069;51.164;-114.452;2024-03-08T00:52:09;87986.66;;;15.65;46.95
65019;BME280;66069;51.164;-114.452;2024-03-08T00:54:36;87972.31;;;15.63;46.97
65019;BME280;66069;51.164;-114.452;2024-03-08T00:57:03;87978.34;;;15.67;46.97
65019;BME280;66069;51.164;-114.452;2024-03-08T00:59:30;87966.28;;;15.51;47.35
65019;BME280;66069;51.164;-114.452;2024-03-08T01:01:59;87995.69;;;15.68;46.92
65019;BME280;66069;51.164;-114.452;2024-03-08T01:04:26;87988.91;;;15.67;47.14
65019;BME280;66069;51.164;-114.452;2024-03-08T01:06:58;87996.44;;;15.68;47.12
65019;BME280;66069;51.164;-114.452;2024-03-08T01:09:25;87995.69;;;15.68;47.16
65019;BME280;66069;51.164;-114.452;2024-03-08T01:11:53;87994.19;;;15.67;47.43
65019;BME280;66069;51.164;-114.452;2024-03-08T01:14:23;87988.91;;;15.59;47.58
65019;BME280;66069;51.164;-114.452;2024-03-08T01:16:51;87984.75;;;15.58;47.33
65019;BME280;66069;51.164;-114.452;2024-03-08T01:19:17;87995.34;;;15.62;47.17
65019;BME280;66069;51.164;-114.452;2024-03-08T01:21:44;87987.03;;;15.60;47.51
65019;BME280;66069;51.164;-114.452;2024-03-08T01:24:10;87979.47;;;15.58;47.31
65019;BME280;66069;51.164;-114.452;2024-03-08T01:26:36;87987.78;;;15.64;47.22
65019;BME280;66069;51.164;-114.452;2024-03-08T01:29:03;87986.28;;;15.63;47.41
65019;BME280;66069;51.164;-114.452;2024-03-08T01:31:30;87985.53;;;15.63;47.21
65019;BME280;66069;51.164;-114.452;2024-03-08T01:33:57;87988.91;;;15.63;47.17
65019;BME280;66069;51.164;-114.452;2024-03-08T01:36:23;87988.16;;;15.59;46.91
65019;BME280;66069;51.164;-114.452;2024-03-08T01:38:51;87985.13;;;15.57;47.11
65019;BME280;66069;51.164;-114.452;2024-03-08T01:41:17;87982.16;;;15.51;47.19
65019;BME280;66069;51.164;-114.452;2024-03-08T01:43:44;87998.38;;;15.53;46.96
65019;BME280;66069;51.164;-114.452;2024-03-08T01:46:17;88002.53;;;15.51;47.04
65019;BME280;66069;51.164;-114.452;2024-03-08T01:48:44;88007.09;;;15.47;47.04
65019;BME280;66069;51.164;-114.452;2024-03-08T01:51:12;87979.28;;;15.24;47.03
65019;BME280;66069;51.164;-114.452;2024-03-08T01:53:38;88016.53;;;15.48;47.16
65019;BME280;66069;51.164;-114.452;2024-03-08T01:56:06;88012.75;;;15.45;47.82
65019;BME280;66069;51.164;-114.452;2024-03-08T01:58:32;88017.69;;;15.47;48.00
65019;BME280;66069;51.164;-114.452;2024-03-08T02:00:59;88015.75;;;15.51;47.88
65019;BME280;66069;51.164;-114.452;2024-03-08T02:03:26;88020.69;;;15.49;47.80
65019;BME280;66069;51.164;-114.452;2024-03-08T02:05:53;88037.63;;;15.55;47.96
65019;BME280;66069;51.164;-114.452;2024-03-08T02:08:20;88044.44;;;15.56;47.65
65019;BME280;66069;51.164;-114.452;2024-03-08T02:10:48;88047.06;;;15.56;47.69
65019;BME280;66069;51.164;-114.452;2024-03-08T02:13:15;88044.44;;;15.52;47.74
65019;BME280;66069;51.164;-114.452;2024-03-08T02:15:53;88054.25;;;15.55;47.66
65019;BME280;66069;51.164;-114.452;2024-03-08T02:18:20;88047.06;;;15.56;47.48
65019;BME280;66069;51.164;-114.452;2024-03-08T02:20:48;88038.78;;;15.50;47.28
65019;BME280;66069;51.164;-114.452;2024-03-08T02:23:14;88044.81;;;15.54;47.34
65019;BME280;66069;51.164;-114.452;2024-03-08T02:25:41;88051.25;;;15.53;47.40
65019;BME280;66069;51.164;-114.452;2024-03-08T02:28:11;88058.41;;;15.53;47.37
65019;BME280;66069;51.164;-114.452;2024-03-08T02:30:38;88069.75;;;15.50;47.33
65019;BME280;66069;51.164;-114.452;2024-03-08T02:33:05;88073.16;;;15.47;47.48
65019;BME280;66069;51.164;-114.452;2024-03-08T02:35:32;88075.81;;;15.47;47.55
65019;BME280;66069;51.164;-114.452;2024-03-08T02:37:59;88071.66;;;15.39;47.25
65019;BME280;66069;51.164;-114.452;2024-03-08T02:40:25;88068.66;;;15.37;47.46
65019;BME280;66069;51.164;-114.452;2024-03-08T02:42:52;88075.06;;;15.39;47.27
65019;BME280;66069;51.164;-114.452;2024-03-08T02:45:20;88079.19;;;15.40;47.37
65019;BME280;66069;51.164;-114.452;2024-03-08T02:47:47;88073.16;;;15.40;47.34
65019;BME280;66069;51.164;-114.452;2024-03-08T02:50:15;88077.34;;;15.37;47.22
65019;BME280;66069;51.164;-114.452;2024-03-08T02:52:44;88087.91;;;15.37;47.37
65019;BME280;66069;51.164;-114.452;2024-03-08T02:55:12;88080.38;;;15.35;47.29
65019;BME280;66069;51.164;-114.452;2024-03-08T02:57:42;88079.97;;;15.33;47.10
65019;BME280;66069;51.164;-114.452;2024-03-08T03:00:13;88083.00;;;15.32;46.80
65019;BME280;66069;51.164;-114.452;2024-03-08T03:02:41;88085.66;;;15.32;47.23
65019;BME280;66069;51.164;-114.452;2024-03-08T03:05:08;88077.75;;;15.28;47.05
65019;BME280;66069;51.164;-114.452;2024-03-08T03:07:35;88085.69;;;15.28;46.98
65019;BME280;66069;51.164;-114.452;2024-03-08T03:10:03;88078.88;;;15.27;47.08
65019;BME280;66069;51.164;-114.452;2024-03-08T03:12:30;88082.66;;;15.26;46.94
65019;BME280;66069;51.164;-114.452;2024-03-08T03:14:57;88071.72;;;15.21;46.99
65019;BME280;66069;51.164;-114.452;2024-03-08T03:17:24;88071.75;;;15.17;46.98
65019;BME280;66069;51.164;-114.452;2024-03-08T03:19:51;88072.84;;;15.20;46.89
65019;BME280;66069;51.164;-114.452;2024-03-08T03:22:20;88075.88;;;15.22;46.74
65019;BME280;66069;51.164;-114.452;2024-03-08T03:24:46;88069.47;;;15.16;47.02
65019;BME280;66069;51.164;-114.452;2024-03-08T03:27:13;88064.94;;;15.13;46.80
65019;BME280;66069;51.164;-114.452;2024-03-08T03:29:44;88071.00;;;15.17;46.94
65019;BME280;66069;51.164;-114.452;2024-03-08T03:32:13;88049.88;;;15.02;47.08
65019;BME280;66069;51.164;-114.452;2024-03-08T03:34:42;88083.41;;;15.20;47.17
65019;BME280;66069;51.164;-114.452;2024-03-08T03:37:09;88086.06;;;15.20;46.88
65019;BME280;66069;51.164;-114.452;2024-03-08T03:39:39;88078.91;;;15.17;47.21
65019;BME280;66069;51.164;-114.452;2024-03-08T03:42:15;88082.31;;;15.14;46.89
65019;BME280;66069;51.164;-114.452;2024-03-08T03:44:48;88091.38;;;15.16;47.07
65019;BME280;66069;51.164;-114.452;2024-03-08T03:47:15;88088.72;;;15.16;47.18
65019;BME280;66069;51.164;-114.452;2024-03-08T03:49:42;88088.34;;;15.14;47.03
65019;BME280;66069;51.164;-114.452;2024-03-08T03:52:08;88095.13;;;15.15;47.22
65019;BME280;66069;51.164;-114.452;2024-03-08T03:54:36;88081.94;;;15.12;47.09
65019;BME280;66069;51.164;-114.452;2024-03-08T03:57:02;88094.75;;;15.13;47.09
65019;BME280;66069;51.164;-114.452;2024-03-08T03:59:29;88086.09;;;15.13;47.07
65019;BME280;66069;51.164;-114.452;2024-03-08T04:01:55;88089.50;;;15.10;47.14
65019;BME280;66069;51.164;-114.452;2024-03-08T04:04:22;88080.44;;;15.07;47.11
65019;BME280;66069;51.164;-114.452;2024-03-08T04:06:50;88089.50;;;15.06;46.97
65019;BME280;66069;51.164;-114.452;2024-03-08T04:09:17;88086.47;;;15.07;47.30
65019;BME280;66069;51.164;-114.452;2024-03-08T04:11:48;88089.09;;;15.07;46.94
65019;BME280;66069;51.164;-114.452;2024-03-08T04:14:18;88090.25;;;15.06;47.15
65019;BME280;66069;51.164;-114.452;2024-03-08T04:16:44;88090.25;;;15.03;46.77
65019;BME280;66069;51.164;-114.452;2024-03-08T04:19:10;88092.13;;;15.02;47.00
65019;BME280;66069;51.164;-114.452;2024-03-08T04:21:36;88092.13;;;15.02;46.88
65019;BME280;66069;51.164;-114.452;2024-03-08T04:24:03;88101.56;;;15.03;46.78
65019;BME280;66069;51.164;-114.452;2024-03-08T04:26:29;88100.03;;;15.02;46.74
65019;BME280;66069;51.164;-114.452;2024-03-08T04:28:55;88096.66;;;15.02;46.93
65019;BME280;66069;51.164;-114.452;2024-03-08T04:31:21;88105.31;;;15.02;46.72
65019;BME280;66069;51.164;-114.452;2024-03-08T04:33:52;88113.25;;;15.02;47.07
65019;BME280;66069;51.164;-114.452;2024-03-08T04:36:18;88110.63;;;15.02;47.05
65019;BME280;66069;51.164;-114.452;2024-03-08T04:38:45;88114.78;;;15.03;46.96
65019;BME280;66069;51.164;-114.452;2024-03-08T04:41:11;88114.78;;;15.03;47.01
65019;BME280;66069;51.164;-114.452;2024-03-08T04:43:38;88113.63;;;15.01;47.30
65019;BME280;66069;51.164;-114.452;2024-03-08T04:46:04;88107.63;;;15.04;47.89
65019;BME280;66069;51.164;-114.452;2024-03-08T04:48:31;88117.41;;;15.07;47.87
65019;BME280;66069;51.164;-114.452;2024-03-08T04:50:57;88112.13;;;15.03;47.35
65019;BME280;66069;51.164;-114.452;2024-03-08T04:53:23;88120.41;;;15.09;47.45
65019;BME280;66069;51.164;-114.452;2024-03-08T04:55:50;88120.41;;;15.09;47.27
65019;BME280;66069;51.164;-114.452;2024-03-08T04:58:16;88124.19;;;15.08;47.55
65019;BME280;66069;51.164;-114.452;2024-03-08T05:00:42;88130.97;;;15.09;47.20
65019;BME280;66069;51.164;-114.452;2024-03-08T05:03:08;88130.59;;;15.07;47.20
65019;BME280;66069;51.164;-114.452;2024-03-08T05:05:34;88128.34;;;15.05;47.32
65019;BME280;66069;51.164;-114.452;2024-03-08T05:08:02;88129.47;;;15.08;47.35
65019;BME280;66069;51.164;-114.452;2024-03-08T05:10:28;88122.69;;;15.07;47.17
65019;BME280;66069;51.164;-114.452;2024-03-08T05:12:54;88129.47;;;15.08;47.33
65019;BME280;66069;51.164;-114.452;2024-03-08T05:15:21;88118.91;;;15.08;47.41
65019;BME280;66069;51.164;-114.452;2024-03-08T05:17:47;88117.78;;;15.02;47.09
65019;BME280;66069;51.164;-114.452;2024-03-08T05:20:13;88122.31;;;15.05;47.14
65019;BME280;66069;51.164;-114.452;2024-03-08T05:22:40;88114.78;;;15.03;47.09
65019;BME280;66069;51.164;-114.452;2024-03-08T05:25:06;88121.16;;;15.02;47.01
65019;BME280;66069;51.164;-114.452;2024-03-08T05:27:36;88120.06;;;15.00;47.14
65019;BME280;66069;51.164;-114.452;2024-03-08T05:30:05;88123.81;;;15.02;46.90
65019;BME280;66069;51.164;-114.452;2024-03-08T05:32:32;88122.31;;;15.01;46.97
65019;BME280;66069;51.164;-114.452;2024-03-08T05:34:58;88119.31;;;14.99;46.92
65019;BME280;66069;51.164;-114.452;2024-03-08T05:37:24;88120.81;;;14.97;47.13
65019;BME280;66069;51.164;-114.452;2024-03-08T05:39:50;88120.81;;;14.97;46.82
65019;BME280;66069;51.164;-114.452;2024-03-08T05:42:17;88121.19;;;14.99;46.92
65019;BME280;66069;51.164;-114.452;2024-03-08T05:44:43;88121.56;;;14.97;46.96
65019;BME280;66069;51.164;-114.452;2024-03-08T05:47:09;88114.41;;;14.98;46.93
65019;BME280;66069;51.164;-114.452;2024-03-08T05:49:36;88108.38;;;14.94;46.67
65019;BME280;66069;51.164;-114.452;2024-03-08T05:52:02;88103.84;;;14.94;46.74
65019;BME280;66069;51.164;-114.452;2024-03-08T05:54:29;88113.66;;;14.94;46.86
65019;BME280;66069;51.164;-114.452;2024-03-08T05:56:55;88105.38;;;14.92;46.73
65019;BME280;66069;51.164;-114.452;2024-03-08T05:59:21;88108.75;;;14.92;46.67
65019;BME280;66069;51.164;-114.452;2024-03-08T06:01:49;88107.25;;;14.91;46.74
65019;BME280;66069;51.164;-114.452;2024-03-08T06:04:15;88108.75;;;14.89;46.50
65019;BME280;66069;51.164;-114.452;2024-03-08T06:06:43;88106.84;;;14.89;46.77
65019;BME280;66069;51.164;-114.452;2024-03-08T06:09:09;88108.00;;;14.88;46.55
65019;BME280;66069;51.164;-114.452;2024-03-08T06:11:40;88109.88;;;14.88;46.54
65019;BME280;66069;51.164;-114.452;2024-03-08T06:14:07;88101.22;;;14.80;46.45
65019;BME280;66069;51.164;-114.452;2024-03-08T06:16:33;88108.38;;;14.83;46.52
65019;BME280;66069;51.164;-114.452;2024-03-08T06:18:59;88098.94;;;14.82;46.49
65019;BME280;66069;51.164;-114.452;2024-03-08T06:21:27;88112.16;;;14.82;46.52
65019;BME280;66069;51.164;-114.452;2024-03-08T06:23:54;88106.88;;;14.82;46.70
65019;BME280;66069;51.164;-114.452;2024-03-08T06:26:29;88109.91;;;14.80;46.34
65019;BME280;66069;51.164;-114.452;2024-03-08T06:28:55;88094.44;;;14.75;46.36
65019;BME280;66069;51.164;-114.452;2024-03-08T06:31:22;88103.47;;;14.78;46.59
65019;BME280;66069;51.164;-114.452;2024-03-08T06:33:48;88103.09;;;14.76;46.52
65019;BME280;66069;51.164;-114.452;2024-03-08T06:36:20;88097.84;;;14.69;46.52
65019;BME280;66069;51.164;-114.452;2024-03-08T06:38:48;88095.97;;;14.73;46.27
65019;BME280;66069;51.164;-114.452;2024-03-08T06:41:14;88094.41;;;14.72;46.41
65019;BME280;66069;51.164;-114.452;2024-03-08T06:43:44;88088.03;;;14.62;46.41
65019;BME280;66069;51.164;-114.452;2024-03-08T06:46:11;88104.22;;;14.71;46.48
65019;BME280;66069;51.164;-114.452;2024-03-08T06:48:41;88106.13;;;14.71;46.17
65019;BME280;66069;51.164;-114.452;2024-03-08T06:51:07;88106.50;;;14.69;46.46
65019;BME280;66069;51.164;-114.452;2024-03-08T06:53:34;88107.63;;;14.68;46.46
65019;BME280;66069;51.164;-114.452;2024-03-08T06:56:04;88104.25;;;14.68;46.37
65019;BME280;66069;51.164;-114.452;2024-03-08T06:58:30;88102.34;;;14.65;46.21
65019;BME280;66069;51.164;-114.452;2024-03-08T07:00:56;88110.25;;;14.65;46.48
65019;BME280;66069;51.164;-114.452;2024-03-08T07:03:26;88103.88;;;14.62;46.26
65019;BME280;66069;51.164;-114.452;2024-03-08T07:05:56;88102.72;;;14.63;46.28
65019;BME280;66069;51.164;-114.452;2024-03-08T07:08:24;88093.69;;;14.57;46.13
65019;BME280;66069;51.164;-114.452;2024-03-08T07:10:50;88098.22;;;14.60;46.18
65019;BME280;66069;51.164;-114.452;2024-03-08T07:13:16;88098.56;;;14.59;46.33
65019;BME280;66069;51.164;-114.452;2024-03-08T07:15:43;88093.69;;;14.57;46.22
65019;BME280;66069;51.164;-114.452;2024-03-08T07:18:11;88095.56;;;14.57;46.32
65019;BME280;66069;51.164;-114.452;2024-03-08T07:20:41;88095.22;;;14.54;45.84
65019;BME280;66069;51.164;-114.452;2024-03-08T07:23:09;88098.19;;;14.53;45.92
65019;BME280;66069;51.164;-114.452;2024-03-08T07:25:36;88097.09;;;14.54;45.94
65019;BME280;66069;51.164;-114.452;2024-03-08T07:28:04;88099.34;;;14.52;45.76
65019;BME280;66069;51.164;-114.452;2024-03-08T07:30:32;88091.81;;;14.50;45.78
65019;BME280;66069;51.164;-114.452;2024-03-08T07:33:11;88089.16;;;14.50;46.05
65019;BME280;66069;51.164;-114.452;2024-03-08T07:35:41;88083.47;;;14.45;45.85
65019;BME280;66069;51.164;-114.452;2024-03-08T07:38:11;88085.75;;;14.46;45.65
65019;BME280;66069;51.164;-114.452;2024-03-08T07:40:38;88087.28;;;14.47;46.00
65019;BME280;66069;51.164;-114.452;2024-03-08T07:43:10;88076.69;;;14.44;45.59
65019;BME280;66069;51.164;-114.452;2024-03-08T07:45:39;88078.22;;;14.41;45.72
65019;BME280;66069;51.164;-114.452;2024-03-08T07:48:06;88081.22;;;14.43;45.74
65019;BME280;66069;51.164;-114.452;2024-03-08T07:50:41;88093.66;;;14.43;45.98
65019;BME280;66069;51.164;-114.452;2024-03-08T07:53:08;88091.41;;;14.41;45.66
65019;BME280;66069;51.164;-114.452;2024-03-08T07:55:35;88073.69;;;14.35;45.57
65019;BME280;66069;51.164;-114.452;2024-03-08T07:58:02;88077.44;;;14.34;45.68
65019;BME280;66069;51.164;-114.452;2024-03-08T08:00:29;88088.75;;;14.38;45.70
65019;BME280;66069;51.164;-114.452;2024-03-08T08:02:57;88084.63;;;14.37;45.82
65019;BME280;66069;51.164;-114.452;2024-03-08T08:05:23;88079.72;;;14.32;45.72
65019;BME280;66069;51.164;-114.452;2024-03-08T08:07:49;88082.72;;;14.34;45.56
65019;BME280;66069;51.164;-114.452;2024-03-08T08:10:17;88082.34;;;14.32;45.56
65019;BME280;66069;51.164;-114.452;2024-03-08T08:12:51;88088.38;;;14.32;45.79
65019;BME280;66069;51.164;-114.452;2024-03-08T08:15:17;88094.78;;;14.31;45.47
65019;BME280;66069;51.164;-114.452;2024-03-08T08:17:47;88089.13;;;14.29;45.84
65019;BME280;66069;51.164;-114.452;2024-03-08T08:20:17;88094.75;;;14.27;45.54
65019;BME280;66069;51.164;-114.452;2024-03-08T08:22:44;88098.94;;;14.28;45.49
65019;BME280;66069;51.164;-114.452;2024-03-08T08:25:10;88081.97;;;14.22;45.46
65019;BME280;66069;51.164;-114.452;2024-03-08T08:27:46;88092.13;;;14.20;45.54
65019;BME280;66069;51.164;-114.452;2024-03-08T08:30:12;88090.25;;;14.24;45.60
65019;BME280;66069;51.164;-114.452;2024-03-08T08:32:39;88094.78;;;14.24;45.62
65019;BME280;66069;51.164;-114.452;2024-03-08T08:35:08;88078.19;;;14.20;45.50
65019;BME280;66069;51.164;-114.452;2024-03-08T08:37:35;88091.00;;;14.21;45.58
65019;BME280;66069;51.164;-114.452;2024-03-08T08:40:04;88084.97;;;14.10;45.21
65019;BME280;66069;51.164;-114.452;2024-03-08T08:42:36;88064.59;;;14.04;45.63
65019;BME280;66069;51.164;-114.452;2024-03-08T08:45:04;88086.47;;;14.18;45.14
65019;BME280;66069;51.164;-114.452;2024-03-08T08:47:36;88086.88;;;14.17;45.60
65019;BME280;66069;51.164;-114.452;2024-03-08T08:50:04;88075.94;;;14.11;45.31
65019;BME280;66069;51.164;-114.452;2024-03-08T08:52:31;88083.84;;;14.15;45.26
65019;BME280;66069;51.164;-114.452;2024-03-08T08:54:58;88082.72;;;14.12;45.10
65019;BME280;66069;51.164;-114.452;2024-03-08T08:57:24;88086.47;;;14.11;45.25
65019;BME280;66069;51.164;-114.452;2024-03-08T08:59:50;88074.03;;;14.12;45.43
65019;BME280;66069;51.164;-114.452;2024-03-08T09:02:16;88076.66;;;14.08;45.48
65019;BME280;66069;51.164;-114.452;2024-03-08T09:04:46;88075.53;;;14.09;45.22
65019;BME280;66069;51.164;-114.452;2024-03-08T09:07:14;88069.13;;;14.03;45.24
65019;BME280;66069;51.164;-114.452;2024-03-08T09:09:42;88075.16;;;14.07;45.54
65019;BME280;66069;51.164;-114.452;2024-03-08T09:12:09;88076.69;;;14.05;45.34
65019;BME280;66069;51.164;-114.452;2024-03-08T09:14:40;88080.06;;;14.05;45.13
65019;BME280;66069;51.164;-114.452;2024-03-08T09:17:07;88081.19;;;14.04;45.23
65019;BME280;66069;51.164;-114.452;2024-03-08T09:19:37;88070.25;;;14.02;45.36
65019;BME280;66069;51.164;-114.452;2024-03-08T09:22:04;88067.63;;;14.02;45.09
65019;BME280;66069;51.164;-114.452;2024-03-08T09:24:30;88053.31;;;13.99;45.20
65019;BME280;66069;51.164;-114.452;2024-03-08T09:26:57;88053.69;;;13.94;45.28
65019;BME280;66069;51.164;-114.452;2024-03-08T09:29:24;88067.63;;;13.98;45.29
65019;BME280;66069;51.164;-114.452;2024-03-08T09:31:50;88054.81;;;13.97;45.10
65019;BME280;66069;51.164;-114.452;2024-03-08T09:34:17;88066.47;;;13.96;45.28
65019;BME280;66069;51.164;-114.452;2024-03-08T09:36:44;88057.81;;;13.95;45.11
65019;BME280;66069;51.164;-114.452;2024-03-08T09:39:10;88040.88;;;13.89;45.00
65019;BME280;66069;51.164;-114.452;2024-03-08T09:41:43;88050.66;;;13.92;45.31
65019;BME280;66069;51.164;-114.452;2024-03-08T09:44:10;88052.53;;;13.88;44.93
65019;BME280;66069;51.164;-114.452;2024-03-08T09:46:37;88057.81;;;13.88;45.31
65019;BME280;66069;51.164;-114.452;2024-03-08T09:49:03;88042.34;;;13.83;45.16
65019;BME280;66069;51.164;-114.452;2024-03-08T09:51:33;88045.00;;;13.87;45.19
65019;BME280;66069;51.164;-114.452;2024-03-08T09:54:01;88043.50;;;13.86;45.26
65019;BME280;66069;51.164;-114.452;2024-03-08T09:56:32;88048.41;;;13.87;45.00
65019;BME280;66069;51.164;-114.452;2024-03-08T09:58:59;88034.06;;;13.85;45.26
65019;BME280;66069;51.164;-114.452;2024-03-08T10:02:01;88034.84;;;13.82;45.20
65019;BME280;66069;51.164;-114.452;2024-03-08T10:04:31;88033.34;;;13.81;45.15
65019;BME280;66069;51.164;-114.452;2024-03-08T10:06:58;88026.19;;;13.81;44.81
65019;BME280;66069;51.164;-114.452;2024-03-08T10:09:25;88031.81;;;13.80;45.32
65019;BME280;66069;51.164;-114.452;2024-03-08T10:11:57;88030.31;;;13.79;45.11
65019;BME280;66069;51.164;-114.452;2024-03-08T10:14:26;88026.53;;;13.76;45.24
65019;BME280;66069;51.164;-114.452;2024-03-08T10:16:55;88033.31;;;13.77;44.79
65019;BME280;66069;51.164;-114.452;2024-03-08T10:19:26;88026.16;;;13.74;44.93
65019;BME280;66069;51.164;-114.452;2024-03-08T10:21:53;88025.41;;;13.73;45.26
65019;BME280;66069;51.164;-114.452;2024-03-08T10:24:19;88025.41;;;13.70;44.93
65019;BME280;66069;51.164;-114.452;2024-03-08T10:26:46;88029.16;;;13.72;45.22
65019;BME280;66069;51.164;-114.452;2024-03-08T10:29:13;88028.06;;;13.73;44.93
65019;BME280;66069;51.164;-114.452;2024-03-08T10:31:43;88029.53;;;13.71;45.08
65019;BME280;66069;51.164;-114.452;2024-03-08T10:34:12;88018.63;;;13.69;44.98
65019;BME280;66069;51.164;-114.452;2024-03-08T10:36:39;88021.66;;;13.67;44.92
65019;BME280;66069;51.164;-114.452;2024-03-08T10:39:35;88027.66;;;13.68;44.83
65019;BME280;66069;51.164;-114.452;2024-03-08T10:42:04;88027.66;;;13.68;45.04
65019;BME280;66069;51.164;-114.452;2024-03-08T10:47:27;88025.41;;;13.66;45.11
65019;BME280;66069;51.164;-114.452;2024-03-08T10:52:39;88023.50;;;13.63;45.09
65019;BME280;66069;51.164;-114.452;2024-03-08T10:55:07;88001.63;;;13.45;45.41
65019;BME280;66069;51.164;-114.452;2024-03-08T10:57:40;88028.75;;;13.60;45.03
65019;BME280;66069;51.164;-114.452;2024-03-08T11:00:08;88018.22;;;13.56;44.71
65019;BME280;66069;51.164;-114.452;2024-03-08T11:02:37;88028.75;;;13.60;44.91
65019;BME280;66069;51.164;-114.452;2024-03-08T11:05:04;88019.72;;;13.57;45.07
65019;BME280;66069;51.164;-114.452;2024-03-08T11:07:34;88012.94;;;13.53;44.93
65019;BME280;66069;51.164;-114.452;2024-03-08T11:10:04;88025.00;;;13.57;44.99
65019;BME280;66069;51.164;-114.452;2024-03-08T11:12:36;88020.13;;;13.56;44.81
65019;BME280;66069;51.164;-114.452;2024-03-08T11:15:11;88014.09;;;13.55;45.03
65019;BME280;66069;51.164;-114.452;2024-03-08T11:20:16;88035.50;;;13.54;44.92
65019;BME280;66069;51.164;-114.452;2024-03-08T11:22:55;88033.25;;;13.52;45.06
65019;BME280;66069;51.164;-114.452;2024-03-08T11:25:38;88035.13;;;13.52;44.94
65019;BME280;66069;51.164;-114.452;2024-03-08T11:28:12;88029.50;;;13.50;45.17
65019;BME280;66069;51.164;-114.452;2024-03-08T11:33:32;88024.22;;;13.50;44.88
65019;BME280;66069;51.164;-114.452;2024-03-08T11:38:32;88019.34;;;13.48;44.95
65019;BME280;66069;51.164;-114.452;2024-03-08T11:40:59;88021.56;;;13.46;44.94
65019;BME280;66069;51.164;-114.452;2024-03-08T11:43:25;88013.69;;;13.46;45.13
65019;BME280;66069;51.164;-114.452;2024-03-08T11:45:51;88008.81;;;13.48;45.29
65019;BME280;66069;51.164;-114.452;2024-03-08T11:48:34;88017.84;;;13.54;45.59
65019;BME280;66069;51.164;-114.452;2024-03-08T11:51:01;88025.00;;;13.57;45.75
65019;BME280;66069;51.164;-114.452;2024-03-08T11:53:28;88014.84;;;13.59;46.33
65019;BME280;66069;51.164;-114.452;2024-03-08T11:55:55;88014.09;;;13.62;46.48
65019;BME280;66069;51.164;-114.452;2024-03-08T11:58:30;88019.75;;;13.68;46.49
65019;BME280;66069;51.164;-114.452;2024-03-08T12:01:08;88013.72;;;13.71;46.32
65019;BME280;66069;51.164;-114.452;2024-03-08T12:03:42;88011.50;;;13.73;46.84
65019;BME280;66069;51.164;-114.452;2024-03-08T12:06:12;88015.25;;;13.83;47.32
65019;BME280;66069;51.164;-114.452;2024-03-08T12:08:41;88020.91;;;13.88;47.47
65019;BME280;66069;51.164;-114.452;2024-03-08T12:11:07;88012.63;;;13.93;47.77
65019;BME280;66069;51.164;-114.452;2024-03-08T12:13:35;88007.00;;;13.98;47.97
65019;BME280;66069;51.164;-114.452;2024-03-08T12:16:05;88004.72;;;14.00;48.29
65019;BME280;66069;51.164;-114.452;2024-03-08T12:18:38;88003.25;;;14.10;48.52
65019;BME280;66069;51.164;-114.452;2024-03-08T12:21:09;88002.09;;;14.15;48.57
65019;BME280;66069;51.164;-114.452;2024-03-08T12:23:47;88001.72;;;14.23;48.71
65019;BME280;66069;51.164;-114.452;2024-03-08T12:26:23;87999.84;;;14.31;49.19
65019;BME280;66069;51.164;-114.452;2024-03-08T12:28:49;87994.53;;;14.38;49.20
65019;BME280;66069;51.164;-114.452;2024-03-08T12:31:16;87994.53;;;14.45;49.09
65019;BME280;66069;51.164;-114.452;2024-03-08T12:33:55;87995.31;;;14.53;49.28
65019;BME280;66069;51.164;-114.452;2024-03-08T12:36:25;87995.31;;;14.60;49.41
65019;BME280;66069;51.164;-114.452;2024-03-08T12:38:53;87988.50;;;14.63;49.28
65019;BME280;66069;51.164;-114.452;2024-03-08T12:41:23;88000.16;;;14.76;49.48
65019;BME280;66069;51.164;-114.452;2024-03-08T12:43:50;87993.38;;;14.78;49.64
65019;BME280;66069;51.164;-114.452;2024-03-08T12:48:43;87993.31;;;14.96;49.50
65019;BME280;66069;51.164;-114.452;2024-03-08T12:51:16;87997.47;;;15.04;49.37